Time;durP1;ratioP1;P1;durP2;ratioP2;P2;SDS_P1;SDS_P2;PMS_P1;PMS_P2;Temp;Humidity;BMP_temperature;BMP_pressure;BME280_temperature;BME280_humidity;BME280_pressure;Samples;Min_cycle;Max_cycle;Signal;HPM_P1;HPM_P2
2023/11/21 00:01:09;;;;;;;12.30;9.60;;;;;;;10.99;45.78;101271.48;106573;1263;22530;-69
2023/11/21 00:03:37;;;;;;;9.90;8.90;;;;;;;10.98;45.70;101273.08;106727;1259;22968;-69
2023/11/21 00:06:08;;;;;;;12.20;9.60;;;;;;;10.98;45.75;101272.02;106722;1259;25330;-69
2023/11/21 00:08:37;;;;;;;10.50;8.70;;;;;;;10.97;45.66;101275.87;106737;1260;22554;-69
2023/11/21 00:11:08;;;;;;;9.60;8.30;;;;;;;10.97;45.75;101275.52;106696;1259;22533;-69
2023/11/21 00:13:35;;;;;;;10.60;8.90;;;;;;;10.96;45.80;101284.90;106763;1256;25304;-69
2023/11/21 00:16:04;;;;;;;10.60;8.80;;;;;;;10.96;45.77;101286.65;106719;1272;22554;-69
2023/11/21 00:18:31;;;;;;;11.30;9.00;;;;;;;10.96;45.66;101285.09;106578;1262;22536;-69
2023/11/21 00:20:59;;;;;;;9.60;8.50;;;;;;;10.97;45.65;101280.38;106704;1259;25257;-69
2023/11/21 00:23:27;;;;;;;9.60;7.90;;;;;;;10.99;45.44;101270.27;106759;1256;24726;-69
2023/11/21 00:25:55;;;;;;;8.90;7.50;;;;;;;10.99;45.27;101266.28;106719;1256;22531;-69
2023/11/21 00:28:23;;;;;;;10.20;9.00;;;;;;;10.99;44.97;101264.90;106682;1260;24809;-69
2023/11/21 00:30:51;;;;;;;9.90;8.30;;;;;;;10.98;44.74;101266.48;106731;1262;22572;-69
2023/11/21 00:33:19;;;;;;;9.90;7.90;;;;;;;10.97;44.65;101271.70;106499;1276;22541;-69
2023/11/21 00:35:47;;;;;;;11.10;8.90;;;;;;;10.97;44.64;101273.61;105613;1259;1002993;-69
2023/11/21 00:38:15;;;;;;;12.60;9.60;;;;;;;10.93;44.66;101281.98;106425;1256;22636;-69
2023/11/21 00:40:42;;;;;;;12.60;8.80;;;;;;;10.89;44.78;101286.73;106200;1262;25311;-69
2023/11/21 00:43:10;;;;;;;10.00;7.90;;;;;;;10.84;45.17;101289.42;106370;1259;25338;-69
2023/11/21 00:45:40;;;;;;;10.80;8.30;;;;;;;10.80;45.47;101281.48;106626;1261;25278;-69
2023/11/21 00:48:09;;;;;;;10.50;8.80;;;;;;;10.85;45.43;101275.35;106740;1260;22539;-69
2023/11/21 00:50:37;;;;;;;11.30;8.00;;;;;;;10.86;45.10;101279.67;106783;1256;22534;-69
2023/11/21 00:53:07;;;;;;;11.40;8.70;;;;;;;10.85;44.92;101279.17;106680;1261;25313;-69
2023/11/21 00:55:35;;;;;;;11.60;8.90;;;;;;;10.87;44.92;101279.13;106756;1271;22536;-69
2023/11/21 00:58:04;;;;;;;11.20;9.60;;;;;;;10.89;44.80;101284.83;106709;1272;22551;-70
2023/11/21 01:00:33;;;;;;;11.50;8.70;;;;;;;10.89;44.95;101283.95;106796;1259;22526;-69
2023/11/21 01:03:02;;;;;;;11.10;7.50;;;;;;;10.87;44.36;101286.61;106696;1256;22542;-69
2023/11/21 01:05:30;;;;;;;9.30;7.60;;;;;;;10.90;43.78;101283.63;106736;1259;22554;-68
2023/11/21 01:07:58;;;;;;;11.60;7.60;;;;;;;10.88;43.48;101288.48;106703;1259;24286;-68
2023/11/21 01:10:25;;;;;;;8.50;6.80;;;;;;;10.84;43.35;101294.11;106652;1275;22533;-68
2023/11/21 01:12:54;;;;;;;8.50;6.70;;;;;;;10.84;43.44;101289.06;106513;1262;22529;-69
2023/11/21 01:15:22;;;;;;;8.40;7.10;;;;;;;10.83;43.40;101292.90;106735;1257;22542;-69
2023/11/21 01:17:49;;;;;;;8.20;7.20;;;;;;;10.86;43.56;101293.91;106760;1271;22523;-69
2023/11/21 01:20:18;;;;;;;7.30;6.60;;;;;;;10.87;43.74;101294.59;106794;1256;22522;-68
2023/11/21 01:22:48;;;;;;;9.70;7.10;;;;;;;10.88;43.86;101290.23;106772;1259;25373;-69
2023/11/21 01:25:17;;;;;;;8.30;7.40;;;;;;;10.89;43.98;101296.63;106720;1260;24482;-69
2023/11/21 01:27:45;;;;;;;8.20;6.20;;;;;;;10.90;44.10;101290.35;106767;1259;22533;-68
2023/11/21 01:30:14;;;;;;;7.00;5.80;;;;;;;10.92;43.95;101291.56;106752;1259;22686;-69
2023/11/21 01:32:42;;;;;;;7.50;6.30;;;;;;;10.92;43.61;101286.52;106664;1256;25484;-69
2023/11/21 01:35:10;;;;;;;7.70;6.00;;;;;;;10.92;43.32;101281.48;105953;1255;1002883;-68
2023/11/21 01:37:39;;;;;;;7.20;6.00;;;;;;;10.92;43.15;101275.42;106702;1259;22538;-69
2023/11/21 01:40:10;;;;;;;7.40;6.50;;;;;;;10.88;43.05;101273.03;106839;1259;22537;-69
2023/11/21 01:42:38;;;;;;;6.50;5.90;;;;;;;10.87;43.10;101272.70;106388;1262;22534;-68
2023/11/21 01:45:07;;;;;;;6.90;6.20;;;;;;;10.85;43.09;101277.41;106738;1260;23137;-68
2023/11/21 01:47:35;;;;;;;7.80;6.40;;;;;;;10.87;43.01;101283.63;106652;1259;26776;-68
2023/11/21 01:50:05;;;;;;;7.20;6.20;;;;;;;10.88;42.90;101277.02;106659;1262;23914;-69
2023/11/21 01:52:34;;;;;;;8.00;6.40;;;;;;;10.87;42.83;101277.21;105961;1259;1003171;-69
2023/11/21 01:55:02;;;;;;;7.80;6.20;;;;;;;10.85;42.80;101289.39;106729;1259;24339;-69
2023/11/21 01:57:30;;;;;;;8.30;6.90;;;;;;;10.83;42.91;101287.17;106051;1256;1003450;-68
2023/11/21 01:59:58;;;;;;;7.40;6.60;;;;;;;10.82;43.02;101281.64;106651;1258;22531;-68
2023/11/21 02:02:26;;;;;;;8.60;6.00;;;;;;;10.82;43.07;101289.45;106776;1259;22534;-69
2023/11/21 02:04:54;;;;;;;6.00;5.40;;;;;;;10.83;42.97;101293.08;106776;1259;25333;-68
2023/11/21 02:07:23;;;;;;;8.10;6.00;;;;;;;10.86;43.00;101291.83;106050;1259;1003096;-69
2023/11/21 02:09:51;;;;;;;8.20;7.30;;;;;;;10.88;43.20;101298.58;106003;1259;1003447;-68
2023/11/21 02:12:19;;;;;;;7.00;6.20;;;;;;;10.83;43.45;101299.15;106781;1256;25299;-69
2023/11/21 02:14:47;;;;;;;6.90;6.00;;;;;;;10.87;43.37;101301.35;106716;1258;25229;-69
2023/11/21 02:17:15;;;;;;;8.70;6.80;;;;;;;10.87;43.55;101301.67;106672;1257;22536;-69
2023/11/21 02:19:44;;;;;;;8.30;6.80;;;;;;;10.87;43.86;101298.56;106483;1261;25333;-69
2023/11/21 02:22:12;;;;;;;8.70;7.50;;;;;;;10.86;44.03;101298.75;106467;1256;22533;-69
2023/11/21 02:24:42;;;;;;;8.90;7.80;;;;;;;10.86;44.25;101293.55;106670;1272;22533;-69
2023/11/21 02:27:10;;;;;;;12.20;9.00;;;;;;;10.85;44.54;101281.77;106526;1264;22552;-69
2023/11/21 02:29:38;;;;;;;10.60;9.50;;;;;;;10.87;44.72;101292.15;105727;1260;1003173;-69
2023/11/21 02:32:06;;;;;;;11.40;9.00;;;;;;;10.87;44.95;101290.77;106060;1262;1002927;-69
2023/11/21 02:34:34;;;;;;;11.10;9.40;;;;;;;10.88;45.33;101283.29;106759;1259;22536;-69
2023/11/21 02:37:01;;;;;;;10.40;8.90;;;;;;;10.89;45.57;101277.70;106724;1258;25305;-69
2023/11/21 02:39:29;;;;;;;10.50;8.90;;;;;;;10.90;45.71;101271.79;106699;1257;22531;-69
2023/11/21 02:41:57;;;;;;;11.30;9.20;;;;;;;10.92;45.65;101275.58;106758;1272;22530;-69
2023/11/21 02:44:26;;;;;;;9.80;8.50;;;;;;;10.92;45.57;101280.61;106757;1271;22532;-69
2023/11/21 02:46:53;;;;;;;9.60;8.10;;;;;;;10.91;45.40;101287.05;106756;1259;22555;-69
2023/11/21 02:49:21;;;;;;;10.20;8.20;;;;;;;10.90;45.53;101295.91;106014;1260;1003505;-69
2023/11/21 02:51:49;;;;;;;10.20;9.00;;;;;;;10.91;45.66;101298.33;106720;1261;22530;-68
2023/11/21 02:54:17;;;;;;;10.10;8.90;;;;;;;10.92;45.83;101299.88;106778;1272;22530;-69
2023/11/21 02:56:46;;;;;;;10.40;8.70;;;;;;;10.92;45.87;101301.95;106001;1272;1002484;-69
2023/11/21 02:59:15;;;;;;;10.50;8.90;;;;;;;10.91;45.75;101302.51;106705;1271;22538;-69
2023/11/21 03:05:10;;;;;;;13.80;9.30;;;;;;;10.93;45.87;101303.16;103715;1291;545455;-69
2023/11/21 03:07:40;;;;;;;;;;;;;;;10.90;45.68;101315.88;106073;1269;22517;-68
2023/11/21 03:10:25;;;;;;;8.60;7.50;;;;;;;10.89;44.94;101317.63;105965;1265;22558;-70
2023/11/21 03:12:55;;;;;;;9.60;8.30;;;;;;;10.83;44.63;101315.46;106346;1268;22539;-70
2023/11/21 03:15:22;;;;;;;8.80;7.90;;;;;;;10.82;44.55;101312.36;106073;1271;22540;-70
2023/11/21 03:17:50;;;;;;;9.50;8.10;;;;;;;10.84;44.58;101318.58;106034;1268;327957;-69
2023/11/21 03:20:19;;;;;;;10.30;8.70;;;;;;;10.84;44.44;101315.46;106821;1258;22531;-69
2023/11/21 03:22:46;;;;;;;9.30;8.30;;;;;;;10.82;44.48;101316.33;107007;1266;22544;-70
2023/11/21 03:25:16;;;;;;;12.10;9.60;;;;;;;10.81;44.51;101317.05;107025;1263;22527;-70
2023/11/21 03:27:45;;;;;;;9.90;8.90;;;;;;;10.78;44.71;101321.79;107055;1253;22584;-69
2023/11/21 03:30:14;;;;;;;12.70;9.90;;;;;;;10.74;44.88;101320.29;106711;1261;25292;-69
2023/11/21 03:32:42;;;;;;;12.20;10.00;;;;;;;10.70;44.96;101317.89;107057;1257;22622;-69
2023/11/21 03:35:09;;;;;;;12.80;10.60;;;;;;;10.65;45.30;101321.45;106971;1256;25295;-70
2023/11/21 03:37:41;;;;;;;11.90;9.60;;;;;;;10.63;45.43;101330.30;106966;1256;22529;-70
2023/11/21 03:40:10;;;;;;;10.90;9.40;;;;;;;10.59;45.36;101335.73;106991;1256;22527;-69
2023/11/21 03:42:39;;;;;;;11.20;9.70;;;;;;;10.49;45.56;101336.39;107021;1256;23901;-69
2023/11/21 03:45:08;;;;;;;11.20;9.80;;;;;;;10.44;45.58;101331.59;106610;1261;24244;-70
2023/11/21 03:47:36;;;;;;;13.00;10.20;;;;;;;10.46;45.80;101327.21;106936;1260;24319;-70
2023/11/21 03:50:05;;;;;;;11.90;9.90;;;;;;;10.47;45.79;101325.66;106945;1258;22536;-70
2023/11/21 03:52:33;;;;;;;11.70;9.10;;;;;;;10.49;45.68;101321.11;106942;1257;25344;-70
2023/11/21 03:55:02;;;;;;;11.30;9.20;;;;;;;10.49;45.91;101315.57;106863;1261;25372;-69
2023/11/21 03:57:30;;;;;;;12.80;9.50;;;;;;;10.49;46.00;101316.09;106780;1259;22530;-69
2023/11/21 03:59:58;;;;;;;10.70;9.60;;;;;;;10.49;45.94;101316.95;106995;1256;25366;-69
2023/11/21 04:02:26;;;;;;;9.90;8.40;;;;;;;10.50;45.90;101310.52;107012;1259;22546;-69
2023/11/21 04:04:54;;;;;;;11.10;10.00;;;;;;;10.49;45.95;101308.80;106903;1253;23887;-69
2023/11/21 04:07:22;;;;;;;12.10;10.00;;;;;;;10.47;45.94;101309.17;106899;1258;22626;-69
2023/11/21 04:09:50;;;;;;;13.90;9.60;;;;;;;10.45;46.03;101306.95;106684;1253;22544;-69
2023/11/21 04:12:18;;;;;;;11.10;9.20;;;;;;;10.42;46.15;101301.95;106783;1256;25358;-69
2023/11/21 04:14:46;;;;;;;11.40;9.20;;;;;;;10.40;46.24;101297.65;106489;1272;25373;-69
2023/11/21 04:17:13;;;;;;;11.90;9.00;;;;;;;10.37;46.38;101298.89;106829;1269;22530;-69
2023/11/21 04:19:41;;;;;;;14.30;9.90;;;;;;;10.36;46.55;101300.81;106809;1256;22534;-69
2023/11/21 04:22:09;;;;;;;14.30;10.50;;;;;;;10.34;46.69;101299.29;106728;1255;25495;-69
2023/11/21 04:24:37;;;;;;;16.00;10.80;;;;;;;10.34;46.60;101304.84;106827;1259;25360;-69
2023/11/21 04:27:05;;;;;;;12.10;10.50;;;;;;;10.30;46.61;101302.98;107019;1256;22545;-69
2023/11/21 04:29:32;;;;;;;33.70;17.30;;;;;;;10.30;46.79;101312.85;106839;1262;22526;-69
2023/11/21 04:32:02;;;;;;;24.90;14.20;;;;;;;10.31;46.91;101316.66;106903;1259;22527;-69
2023/11/21 04:34:34;;;;;;;27.90;15.20;;;;;;;10.32;46.91;101319.59;107037;1256;22526;-70
2023/11/21 04:37:03;;;;;;;25.10;15.50;;;;;;;10.35;46.95;101326.33;107026;1256;22526;-69
2023/11/21 04:39:31;;;;;;;23.30;14.20;;;;;;;10.35;47.03;101324.08;106244;1259;1003496;-69
2023/11/21 04:41:59;;;;;;;20.50;12.10;;;;;;;10.38;47.21;101319.52;107006;1256;22523;-69
2023/11/21 04:44:27;;;;;;;20.00;13.00;;;;;;;10.42;47.33;101319.81;106122;1259;1003400;-69
2023/11/21 04:46:55;;;;;;;24.50;12.10;;;;;;;10.43;47.35;101313.05;106930;1253;24638;-70
2023/11/21 04:49:23;;;;;;;17.00;10.90;;;;;;;10.46;47.44;101313.17;107040;1256;22540;-70
2023/11/21 04:51:51;;;;;;;16.60;10.00;;;;;;;10.49;47.49;101304.81;106989;1256;24256;-69
2023/11/21 04:54:19;;;;;;;12.70;8.30;;;;;;;10.52;47.59;101305.82;106942;1262;22909;-69
2023/11/21 04:56:46;;;;;;;10.90;7.10;;;;;;;10.56;47.68;101313.58;106782;1274;22535;-69
2023/11/21 04:59:14;;;;;;;8.50;5.90;;;;;;;10.58;47.85;101315.29;106823;1271;22634;-69
2023/11/21 05:01:42;;;;;;;5.60;4.00;;;;;;;10.62;48.19;101314.01;106935;1259;22526;-69
2023/11/21 05:04:10;;;;;;;5.40;4.00;;;;;;;10.68;48.41;101310.64;106285;1269;1003381;-68
2023/11/21 05:06:38;;;;;;;4.00;3.60;;;;;;;10.76;48.52;101309.50;107040;1269;22546;-69
2023/11/21 05:09:05;;;;;;;4.60;4.00;;;;;;;10.83;48.70;101312.34;106806;1260;24217;-69
2023/11/21 05:11:33;;;;;;;4.20;3.70;;;;;;;10.91;48.94;101320.03;107009;1259;22774;-70
2023/11/21 05:14:01;;;;;;;4.50;3.70;;;;;;;10.98;48.96;101323.58;106927;1269;22528;-69
2023/11/21 05:16:29;;;;;;;3.90;3.50;;;;;;;11.06;48.94;101326.42;106349;1255;1003158;-69
2023/11/21 05:19:00;;;;;;;5.10;4.00;;;;;;;11.14;48.93;101328.55;106957;1256;23861;-69
2023/11/21 05:21:30;;;;;;;4.90;3.90;;;;;;;11.22;49.00;101333.98;107105;1256;22604;-69
2023/11/21 05:23:58;;;;;;;3.90;3.40;;;;;;;11.30;48.95;101336.11;106241;1256;1002865;-68
2023/11/21 05:26:25;;;;;;;6.70;3.60;;;;;;;11.35;49.04;101332.05;106902;1260;22530;-70
2023/11/21 05:28:53;;;;;;;3.40;3.00;;;;;;;11.42;49.12;101334.36;107087;1258;22530;-70
2023/11/21 05:31:21;;;;;;;4.10;3.20;;;;;;;11.51;49.06;101342.38;106972;1270;25243;-70
2023/11/21 05:33:49;;;;;;;4.50;3.80;;;;;;;11.59;49.10;101345.20;106986;1258;22543;-70
2023/11/21 05:36:18;;;;;;;4.40;3.70;;;;;;;11.67;49.01;101349.27;106782;1262;22566;-69
2023/11/21 05:38:45;;;;;;;5.30;3.30;;;;;;;11.73;48.99;101352.83;106346;1256;1003610;-70
2023/11/21 05:41:13;;;;;;;3.60;3.20;;;;;;;11.81;48.97;101357.73;106996;1256;22533;-70
2023/11/21 05:43:41;;;;;;;4.50;3.20;;;;;;;11.88;48.95;101360.22;107053;1252;24778;-70
2023/11/21 05:46:09;;;;;;;3.60;3.30;;;;;;;11.93;48.95;101358.05;107079;1256;22533;-70
2023/11/21 05:48:37;;;;;;;3.90;3.50;;;;;;;11.98;48.91;101357.60;107077;1256;24279;-70
2023/11/21 05:51:06;;;;;;;3.80;3.30;;;;;;;12.04;48.94;101351.77;106509;1263;22614;-70
2023/11/21 05:53:34;;;;;;;3.60;3.20;;;;;;;12.09;48.93;101348.02;106694;1266;24394;-70
2023/11/21 05:56:03;;;;;;;5.80;4.10;;;;;;;12.14;49.03;101351.91;106564;1268;22523;-70
2023/11/21 05:58:31;;;;;;;3.80;3.00;;;;;;;12.20;49.10;101355.09;107014;1269;25294;-69
2023/11/21 06:00:59;;;;;;;4.00;2.90;;;;;;;12.28;49.20;101354.79;107080;1257;22523;-69
2023/11/21 06:03:27;;;;;;;3.80;3.10;;;;;;;12.35;49.25;101353.77;106931;1259;22526;-69
2023/11/21 06:05:55;;;;;;;3.50;3.00;;;;;;;12.44;49.31;101343.85;107053;1259;22533;-69
2023/11/21 06:08:23;;;;;;;4.00;3.40;;;;;;;12.50;49.43;101335.53;106333;1255;1002838;-69
2023/11/21 06:10:50;;;;;;;3.30;3.00;;;;;;;12.57;49.42;101336.80;107050;1254;22535;-69
2023/11/21 06:13:24;;;;;;;3.30;3.00;;;;;;;12.65;49.52;101334.02;107041;1254;24196;-69
2023/11/21 06:15:52;;;;;;;3.40;3.10;;;;;;;12.72;49.48;101334.55;107082;1256;22526;-69
2023/11/21 06:18:20;;;;;;;3.60;2.80;;;;;;;12.79;49.53;101331.98;106750;1259;24295;-69
2023/11/21 06:20:48;;;;;;;3.40;3.10;;;;;;;12.84;49.68;101334.66;106189;1263;1003092;-70
2023/11/21 06:23:16;;;;;;;4.10;3.00;;;;;;;12.90;49.74;101329.10;107086;1256;22531;-69
2023/11/21 06:25:44;;;;;;;4.60;2.90;;;;;;;12.98;49.75;101323.86;106029;1264;1003287;-69
2023/11/21 06:28:12;;;;;;;3.20;2.90;;;;;;;13.07;49.74;101319.89;107084;1269;23867;-69
2023/11/21 06:30:40;;;;;;;3.40;3.00;;;;;;;13.15;49.83;101322.32;106977;1256;22818;-69
2023/11/21 06:33:08;;;;;;;3.10;2.80;;;;;;;13.22;49.78;101327.02;106767;1269;22557;-69
2023/11/21 06:35:36;;;;;;;3.90;3.20;;;;;;;13.31;49.75;101324.89;106881;1260;22561;-69
2023/11/21 06:38:03;;;;;;;3.50;2.80;;;;;;;13.38;49.65;101321.93;107062;1258;22530;-69
2023/11/21 06:40:33;;;;;;;3.20;2.70;;;;;;;13.44;49.62;101322.83;107009;1261;22526;-69
2023/11/21 06:43:01;;;;;;;3.90;3.20;;;;;;;13.52;49.52;101318.80;106936;1256;22530;-69
2023/11/21 06:45:29;;;;;;;3.80;3.40;;;;;;;13.63;49.39;101319.02;107074;1267;23894;-69
2023/11/21 06:47:57;;;;;;;3.20;2.90;;;;;;;13.71;49.49;101321.79;107078;1256;24231;-69
2023/11/21 06:50:25;;;;;;;3.20;2.70;;;;;;;13.83;49.39;101321.81;106842;1272;28016;-69
2023/11/21 06:52:53;;;;;;;3.60;3.30;;;;;;;13.91;49.28;101323.02;106682;1259;22530;-69
2023/11/21 06:55:21;;;;;;;3.10;2.80;;;;;;;13.99;49.40;101321.05;106754;1256;25213;-70
2023/11/21 06:57:49;;;;;;;3.50;3.20;;;;;;;14.08;49.44;101318.04;106988;1255;22545;-69
2023/11/21 07:00:18;;;;;;;2.80;2.60;;;;;;;14.15;49.49;101312.56;107025;1253;22531;-69
2023/11/21 07:02:45;;;;;;;3.00;2.70;;;;;;;14.23;49.36;101310.63;107020;1256;22527;-69
2023/11/21 07:05:15;;;;;;;3.10;2.80;;;;;;;14.30;49.19;101312.71;107040;1259;22541;-69
2023/11/21 07:07:43;;;;;;;4.20;2.60;;;;;;;14.37;49.11;101315.98;106898;1270;22526;-69
2023/11/21 07:10:12;;;;;;;2.90;2.70;;;;;;;14.42;49.22;101317.80;107067;1269;22534;-69
2023/11/21 07:12:40;;;;;;;3.60;3.10;;;;;;;14.45;49.23;101317.34;107017;1258;22559;-69
2023/11/21 07:15:09;;;;;;;3.80;2.80;;;;;;;14.49;49.36;101316.34;106974;1266;22530;-69
2023/11/21 07:17:37;;;;;;;3.50;2.90;;;;;;;14.55;49.31;101317.24;107057;1256;24622;-68
2023/11/21 07:20:08;;;;;;;4.00;3.00;;;;;;;14.58;49.36;101320.79;106897;1267;22534;-69
2023/11/21 07:22:36;;;;;;;3.40;2.70;;;;;;;14.64;49.37;101323.21;107036;1257;24390;-70
2023/11/21 07:25:05;;;;;;;4.90;2.70;;;;;;;14.68;49.33;101325.21;107050;1255;22618;-69
2023/11/21 07:27:35;;;;;;;3.40;2.80;;;;;;;14.75;49.21;101328.34;106723;1259;22598;-69
2023/11/21 07:30:05;;;;;;;3.10;2.80;;;;;;;14.82;49.03;101337.93;106983;1260;24372;-69
2023/11/21 07:32:32;;;;;;;2.90;2.50;;;;;;;14.86;48.90;101337.09;107019;1272;22534;-69
2023/11/21 07:35:01;;;;;;;5.50;2.90;;;;;;;14.89;48.88;101340.34;107036;1263;22533;-69
2023/11/21 07:37:29;;;;;;;4.00;2.80;;;;;;;14.89;49.05;101350.11;106899;1271;22534;-69
2023/11/21 07:39:56;;;;;;;3.90;2.60;;;;;;;14.90;49.18;101348.50;106688;1259;24221;-69
2023/11/21 07:42:26;;;;;;;3.40;2.90;;;;;;;14.92;49.28;101345.64;106641;1270;25300;-69
2023/11/21 07:44:54;;;;;;;4.90;3.20;;;;;;;14.95;49.32;101346.26;106748;1270;24195;-69
2023/11/21 07:47:22;;;;;;;2.80;2.50;;;;;;;14.98;49.33;101339.70;107034;1256;22533;-68
2023/11/21 07:49:50;;;;;;;3.40;3.10;;;;;;;15.00;49.58;101334.02;106879;1273;24202;-69
2023/11/21 07:52:18;;;;;;;3.50;3.00;;;;;;;15.08;49.73;101330.66;107074;1257;22538;-69
2023/11/21 07:54:46;;;;;;;3.10;2.80;;;;;;;15.16;49.82;101331.44;107093;1268;22530;-69
2023/11/21 07:57:14;;;;;;;3.20;2.90;;;;;;;15.22;49.91;101335.42;107007;1267;22632;-69
2023/11/21 07:59:42;;;;;;;3.60;3.10;;;;;;;15.28;50.02;101336.28;107118;1256;26469;-69
2023/11/21 08:02:10;;;;;;;3.50;3.00;;;;;;;15.42;49.82;101340.58;106930;1262;22527;-69
2023/11/21 08:04:37;;;;;;;3.20;2.90;;;;;;;15.61;49.27;101348.16;107092;1260;22531;-69
2023/11/21 08:07:05;;;;;;;3.30;2.90;;;;;;;15.70;49.03;101351.91;106815;1258;22539;-69
2023/11/21 08:09:34;;;;;;;5.80;2.90;;;;;;;15.76;49.22;101353.98;107044;1260;22539;-69
2023/11/21 08:12:03;;;;;;;3.00;2.80;;;;;;;15.81;49.16;101350.48;107051;1260;22619;-69
2023/11/21 08:14:31;;;;;;;3.50;2.80;;;;;;;15.89;49.21;101350.36;107035;1256;22530;-69
2023/11/21 08:16:59;;;;;;;4.10;2.90;;;;;;;15.97;49.12;101349.02;106751;1261;22530;-69
2023/11/21 08:19:26;;;;;;;4.50;3.10;;;;;;;16.07;48.90;101347.81;106957;1262;22530;-69
2023/11/21 08:21:55;;;;;;;3.10;2.80;;;;;;;16.15;48.66;101347.89;106802;1260;25366;-69
2023/11/21 08:24:23;;;;;;;3.10;2.80;;;;;;;16.21;48.54;101340.31;106887;1269;22515;-69
2023/11/21 08:26:52;;;;;;;4.40;3.20;;;;;;;16.26;48.55;101339.41;107105;1267;22529;-69
2023/11/21 08:29:20;;;;;;;3.10;2.80;;;;;;;16.33;48.50;101341.09;106646;1262;22612;-69
2023/11/21 08:31:48;;;;;;;3.70;3.10;;;;;;;16.39;48.29;101336.35;106756;1268;22534;-70
2023/11/21 08:34:16;;;;;;;4.90;2.90;;;;;;;16.43;48.20;101337.77;106917;1270;22517;-69
2023/11/21 08:36:44;;;;;;;3.30;2.80;;;;;;;16.52;48.19;101335.02;106764;1273;22536;-69
2023/11/21 08:39:13;;;;;;;3.70;3.40;;;;;;;16.65;47.97;101331.91;107004;1255;22647;-69
2023/11/21 08:41:41;;;;;;;3.80;3.20;;;;;;;16.71;47.99;101330.09;106638;1258;22546;-69
2023/11/21 08:44:09;;;;;;;3.70;3.10;;;;;;;16.80;48.00;101327.11;106785;1263;22533;-69
2023/11/21 08:46:37;;;;;;;4.50;3.30;;;;;;;16.87;48.12;101322.80;107009;1266;22534;-69
2023/11/21 08:49:06;;;;;;;4.40;3.00;;;;;;;16.95;48.01;101319.86;106955;1267;22539;-69
2023/11/21 08:51:33;;;;;;;4.20;3.20;;;;;;;17.02;47.89;101316.79;107051;1256;22532;-69
2023/11/21 08:54:04;;;;;;;3.20;3.00;;;;;;;17.08;47.88;101314.61;107094;1256;22538;-69
2023/11/21 08:56:32;;;;;;;4.20;3.40;;;;;;;17.18;47.78;101314.20;106963;1266;25491;-69
2023/11/21 08:59:02;;;;;;;3.60;2.90;;;;;;;17.26;47.52;101310.21;107009;1260;24269;-69
2023/11/21 09:01:31;;;;;;;4.60;3.20;;;;;;;17.31;47.58;101309.11;106809;1259;22476;-70
2023/11/21 09:03:59;;;;;;;3.50;3.20;;;;;;;17.36;47.76;101307.88;107026;1256;26500;-70
2023/11/21 09:06:27;;;;;;;4.00;3.60;;;;;;;17.44;47.71;101298.44;107047;1261;25337;-69
2023/11/21 09:08:55;;;;;;;3.90;3.50;;;;;;;17.53;47.56;101297.72;107041;1266;22553;-70
2023/11/21 09:11:25;;;;;;;4.20;3.60;;;;;;;17.59;47.58;101296.23;106977;1266;22543;-69
2023/11/21 09:13:53;;;;;;;3.60;3.00;;;;;;;17.62;47.66;101292.23;106973;1270;26508;-69
2023/11/21 09:16:20;;;;;;;3.70;3.20;;;;;;;17.67;47.66;101285.90;106976;1267;22554;-69
2023/11/21 09:18:48;;;;;;;3.40;2.90;;;;;;;17.70;47.54;101285.42;106928;1267;25360;-70
2023/11/21 09:21:16;;;;;;;4.00;3.30;;;;;;;17.73;47.53;101279.83;107044;1267;25373;-70
2023/11/21 09:23:44;;;;;;;4.90;3.60;;;;;;;17.76;47.50;101278.12;107003;1267;24373;-70
2023/11/21 09:26:12;;;;;;;3.50;3.20;;;;;;;17.79;47.56;101280.09;106723;1272;23412;-70
2023/11/21 09:28:42;;;;;;;4.60;3.60;;;;;;;17.80;47.54;101278.29;106722;1274;22539;-70
2023/11/21 09:31:10;;;;;;;5.70;4.20;;;;;;;17.83;47.59;101277.64;106700;1266;25253;-70
2023/11/21 09:33:38;;;;;;;3.40;2.90;;;;;;;17.86;47.44;101278.56;106693;1272;22629;-70
2023/11/21 09:36:10;;;;;;;3.70;3.40;;;;;;;17.91;47.62;101268.00;106574;1257;22530;-69
2023/11/21 09:38:39;;;;;;;4.00;3.60;;;;;;;17.92;47.64;101265.33;106728;1254;22561;-70
2023/11/21 09:41:08;;;;;;;5.40;3.30;;;;;;;17.80;47.77;101261.63;106745;1267;25310;-70
2023/11/21 09:43:36;;;;;;;4.30;3.20;;;;;;;17.77;47.97;101262.66;106699;1254;24412;-70
2023/11/21 09:46:04;;;;;;;3.60;3.30;;;;;;;17.79;48.08;101263.77;106669;1266;25415;-70
2023/11/21 09:48:32;;;;;;;3.70;2.90;;;;;;;17.81;48.16;101264.74;106553;1267;22528;-68
2023/11/21 09:51:00;;;;;;;4.20;3.80;;;;;;;17.85;48.32;101257.92;106629;1267;22527;-68
2023/11/21 09:53:29;;;;;;;5.00;3.30;;;;;;;17.88;48.43;101259.88;106639;1267;22810;-68
2023/11/21 09:56:00;;;;;;;5.70;3.60;;;;;;;17.91;48.44;101259.60;106517;1274;26504;-70
2023/11/21 09:58:28;;;;;;;4.00;3.60;;;;;;;17.95;48.23;101255.74;106663;1267;22543;-69
2023/11/21 10:00:57;;;;;;;3.80;3.50;;;;;;;17.98;47.67;101254.89;106659;1273;23860;-70
2023/11/21 10:03:25;;;;;;;4.80;3.70;;;;;;;18.02;47.39;101248.93;106708;1271;24265;-69
2023/11/21 10:05:53;;;;;;;3.70;3.30;;;;;;;18.08;47.03;101253.55;106989;1257;22512;-69
2023/11/21 10:08:21;;;;;;;4.70;3.50;;;;;;;18.14;46.89;101249.77;106996;1258;22537;-69
2023/11/21 10:10:51;;;;;;;4.80;3.70;;;;;;;18.21;46.61;101253.29;106823;1267;25297;-70
2023/11/21 10:13:19;;;;;;;5.10;4.00;;;;;;;18.29;46.29;101255.23;106966;1270;24221;-69
2023/11/21 10:15:51;;;;;;;8.10;4.50;;;;;;;18.34;46.17;101254.30;106858;1270;25337;-70
2023/11/21 10:18:19;;;;;;;7.10;4.80;;;;;;;18.39;46.14;101253.17;106435;1267;25380;-69
2023/11/21 10:20:51;;;;;;;6.10;5.40;;;;;;;18.44;45.81;101253.50;106891;1266;25366;-69
2023/11/21 10:23:22;;;;;;;6.40;5.80;;;;;;;18.48;45.51;101255.96;107053;1257;22533;-69
2023/11/21 10:25:52;;;;;;;5.90;5.10;;;;;;;18.49;45.43;101252.76;107059;1258;22531;-70
2023/11/21 10:28:38;;;;;;;6.50;5.90;;;;;;;;;;104383;1295;543297;-68
2023/11/21 10:31:07;;;;;;;6.10;5.50;;;;;;;;;;106401;1286;24421;-70
2023/11/21 10:33:39;;;;;;;10.30;5.50;;;;;;;;;;106449;1280;22554;-69
2023/11/21 10:36:08;;;;;;;6.40;5.80;;;;;;;;;;106527;1277;22544;-69
2023/11/21 10:38:42;;;;;;;8.00;6.10;;;;;;;;;;106673;1276;22562;-70
2023/11/21 10:41:12;;;;;;;5.90;5.40;;;;;;;;;;106883;1267;292226;-70
2023/11/21 10:43:39;;;;;;;8.10;5.90;;;;;;;;;;107385;1266;22587;-70
2023/11/21 10:46:07;;;;;;;8.60;5.80;;;;;;;;;;107373;1267;22528;-69
2023/11/21 10:48:35;;;;;;;6.40;5.80;;;;;;;;;;107199;1267;24320;-69
2023/11/21 10:51:07;;;;;;;6.30;5.70;;;;;;;;;;107309;1254;22557;-69
2023/11/21 10:53:41;;;;;;;6.40;5.80;;;;;;;;;;107453;1254;24280;-70
2023/11/21 10:56:17;;;;;;;7.40;6.00;;;;;;;;;;107506;1266;22572;-69
2023/11/21 10:58:45;;;;;;;6.00;5.40;;;;;;;;;;107344;1266;26513;-69
2023/11/21 11:01:14;;;;;;;6.10;5.50;;;;;;;;;;107253;1266;22663;-69
2023/11/21 11:03:42;;;;;;;6.60;5.90;;;;;;;;;;107181;1267;22742;-69
2023/11/21 11:06:11;;;;;;;9.20;5.70;;;;;;;;;;106808;1257;22534;-69
2023/11/21 11:08:39;;;;;;;7.40;5.80;;;;;;;;;;107096;1266;25337;-70
2023/11/21 11:11:07;;;;;;;6.00;5.30;;;;;;;;;;107102;1255;22528;-69
2023/11/21 11:13:36;;;;;;;5.40;4.90;;;;;;;;;;107071;1267;22537;-69
2023/11/21 11:16:07;;;;;;;4.80;4.30;;;;;;;;;;107103;1265;24221;-69
2023/11/21 11:18:34;;;;;;;5.40;4.70;;;;;;;;;;107197;1251;22533;-69
2023/11/21 11:21:20;;;;;;;6.00;4.80;;;;;;;;;;106990;1270;22539;-69
2023/11/21 11:23:51;;;;;;;5.40;4.40;;;;;;;;;;107076;1265;26471;-69
2023/11/21 11:26:38;;;;;;;6.00;4.90;;;;;;;;;;107115;1270;22486;-69
2023/11/21 11:29:25;;;;;;;6.70;3.90;;;;;;;;;;107129;1265;25293;-69
2023/11/21 11:32:04;;;;;;;4.20;3.80;;;;;;;;;;107384;1266;23324;-69
2023/11/21 11:34:37;;;;;;;4.50;3.80;;;;;;;;;;107397;1264;24439;-69
2023/11/21 11:37:07;;;;;;;4.40;4.00;;;;;;;;;;107395;1264;22533;-69
2023/11/21 11:39:35;;;;;;;4.80;4.00;;;;;;;;;;107348;1257;22539;-69